createdAt,value
2019-06-07T00:00:48.367Z,5.90
2019-06-07T00:03:27.554Z,5.83
2019-06-07T00:05:48.233Z,6.70
2019-06-07T00:08:24.827Z,6.00
2019-06-07T00:10:46.862Z,7.77
2019-06-07T00:13:18.752Z,5.97
2019-06-07T00:15:45.596Z,6.10
2019-06-07T00:18:19.289Z,6.90
2019-06-07T00:20:44.219Z,6.80
2019-06-07T00:23:18.176Z,6.97
2019-06-07T00:25:42.821Z,7.07
2019-06-07T00:28:13.039Z,7.43
2019-06-07T00:30:51.659Z,6.70
2019-06-07T00:33:16.922Z,7.57
2019-06-07T00:35:43.374Z,7.00
2019-06-07T00:38:11.912Z,7.67
2019-06-07T00:40:40.429Z,7.07
2019-06-07T00:43:13.360Z,7.47
2019-06-07T00:45:39.044Z,6.53
2019-06-07T00:48:08.256Z,7.33
2019-06-07T00:50:36.729Z,8.70
2019-06-07T00:53:17.236Z,7.83
2019-06-07T00:55:35.350Z,7.60
2019-06-07T00:58:03.911Z,7.73
2019-06-07T01:00:32.364Z,7.90
2019-06-07T01:03:00.832Z,7.97
2019-06-07T01:05:31.515Z,6.83
2019-06-07T01:07:59.612Z,6.90
2019-06-07T01:10:51.607Z,7.90
2019-06-07T01:12:58.156Z,6.47
2019-06-07T01:15:29.367Z,8.77
2019-06-07T01:18:33.630Z,8.27
2019-06-07T01:20:28.262Z,8.40
2019-06-07T01:22:56.700Z,9.23
2019-06-07T01:25:26.413Z,9.07
2019-06-07T01:27:55.191Z,7.93
2019-06-07T01:30:26.670Z,9.00
2019-06-07T01:32:55.263Z,9.13
2019-06-07T01:35:25.488Z,8.23
2019-06-07T01:37:53.946Z,9.13
2019-06-07T01:40:27.811Z,9.07
2019-06-07T01:42:53.221Z,8.30
2019-06-07T01:45:23.617Z,8.10
2019-06-07T01:47:52.311Z,9.10
2019-06-07T01:50:23.344Z,10.03
2019-06-07T01:52:50.990Z,9.57
2019-06-07T01:55:23.089Z,10.07
2019-06-07T01:57:49.586Z,9.10
2019-06-07T02:00:21.432Z,10.00
2019-06-07T02:02:48.543Z,9.90
2019-06-07T02:05:19.154Z,10.17
2019-06-07T02:07:47.228Z,10.13
2019-06-07T02:10:16.392Z,9.67
2019-06-07T02:12:44.889Z,10.33
2019-06-07T02:15:15.361Z,8.80
2019-06-07T02:17:43.792Z,10.30
2019-06-07T02:20:13.787Z,9.53
2019-06-07T02:22:42.272Z,9.87
2019-06-07T02:25:37.176Z,9.57
2019-06-07T02:27:41.281Z,9.00
2019-06-07T02:32:42.026Z,9.47
2019-06-07T02:35:10.781Z,9.80
2019-06-07T02:37:39.227Z,9.43
2019-06-07T02:40:08.864Z,9.57
2019-06-07T02:42:42.121Z,10.00
2019-06-07T02:45:10.810Z,11.03
2019-06-07T02:47:39.664Z,10.63
2019-06-07T02:50:11.966Z,10.37
2019-06-07T02:52:41.719Z,10.43
2019-06-07T02:55:11.493Z,11.10
2019-06-07T02:57:42.315Z,10.70
2019-06-07T03:00:40.799Z,10.47
2019-06-07T03:02:43.016Z,10.70
2019-06-07T03:05:11.851Z,10.37
2019-06-07T03:07:44.959Z,9.90
2019-06-07T03:10:12.634Z,10.53
2019-06-07T03:12:43.051Z,11.20
2019-06-07T03:15:30.101Z,11.00
2019-06-07T03:17:51.152Z,9.87
2019-06-07T03:20:24.076Z,9.33
2019-06-07T03:22:52.516Z,9.97
2019-06-07T03:25:21.054Z,10.23
2019-06-07T03:27:50.422Z,10.30
2019-06-07T03:30:40.106Z,10.03
2019-06-07T03:32:49.707Z,9.37
2019-06-07T03:35:18.259Z,9.43
2019-06-07T03:37:46.807Z,9.97
2019-06-07T03:40:15.459Z,9.30
2019-06-07T03:42:43.917Z,9.07
2019-06-07T03:45:12.776Z,9.17
2019-06-07T03:47:42.636Z,9.70
2019-06-07T03:50:11.481Z,9.23
2019-06-07T03:52:41.630Z,9.50
2019-06-07T03:55:10.341Z,9.20
2019-06-07T03:58:29.143Z,9.17
2019-06-07T04:00:09.071Z,10.30
2019-06-07T04:02:38.606Z,9.77
2019-06-07T04:05:08.018Z,9.73
2019-06-07T04:07:40.221Z,9.73
2019-06-07T04:10:07.017Z,9.50
2019-06-07T04:12:40.030Z,8.70
2019-06-07T04:15:06.243Z,8.43
2019-06-07T04:17:36.436Z,7.97
2019-06-07T04:20:08.451Z,8.13
2019-06-07T04:22:42.015Z,6.70
2019-06-07T04:25:12.197Z,7.87
2019-06-07T04:27:41.391Z,7.97
2019-06-07T04:30:10.904Z,10.03
2019-06-07T04:32:44.117Z,8.30
2019-06-07T04:35:10.270Z,8.40
2019-06-07T04:37:41.214Z,8.80
2019-06-07T04:40:09.687Z,9.87
2019-06-07T04:42:44.995Z,11.40
2019-06-07T04:45:32.608Z,9.70
2019-06-07T04:47:44.352Z,10.80
2019-06-07T04:50:13.127Z,10.73
2019-06-07T04:52:44.913Z,8.50
2019-06-07T04:55:11.896Z,11.10
2019-06-07T04:57:43.011Z,10.10
2019-06-07T05:00:45.766Z,12.93
2019-06-07T05:02:43.566Z,13.50
2019-06-07T05:05:11.441Z,13.07
2019-06-07T05:07:40.857Z,12.47
2019-06-07T05:10:10.395Z,13.33
2019-06-07T05:12:43.059Z,15.00
2019-06-07T05:15:09.111Z,16.40
2019-06-07T05:17:42.657Z,14.03
2019-06-07T05:20:07.989Z,15.80
2019-06-07T05:22:42.055Z,15.93
2019-06-07T05:25:06.955Z,15.40
2019-06-07T05:27:36.425Z,14.70
2019-06-07T05:30:13.537Z,15.33
2019-06-07T05:32:43.614Z,15.10
2019-06-07T05:35:10.900Z,15.17
2019-06-07T05:37:43.785Z,16.33
2019-06-07T05:40:09.931Z,15.87
2019-06-07T05:42:41.210Z,15.90
2019-06-07T05:45:09.116Z,15.80
2019-06-07T05:47:43.740Z,16.30
2019-06-07T05:50:37.813Z,15.03
2019-06-07T05:52:40.386Z,15.70
2019-06-07T05:55:09.051Z,16.00
2019-06-07T05:57:40.436Z,15.53
2019-06-07T06:00:08.081Z,16.73
2019-06-07T06:02:57.648Z,15.47
2019-06-07T06:05:07.081Z,17.47
2019-06-07T06:07:38.861Z,17.33
2019-06-07T06:10:08.262Z,15.60
2019-06-07T06:12:40.839Z,15.87
2019-06-07T06:15:08.492Z,16.20
2019-06-07T06:17:40.662Z,18.40
2019-06-07T06:20:07.865Z,17.53
2019-06-07T06:22:37.430Z,16.50
2019-06-07T06:30:12.346Z,17.20
2019-06-07T06:32:46.733Z,15.67
2019-06-07T06:35:11.319Z,16.93
2019-06-07T06:37:43.357Z,15.60
2019-06-07T06:40:10.918Z,15.40
2019-06-07T06:42:39.807Z,17.73
2019-06-07T06:45:10.051Z,17.70
2019-06-07T06:47:38.476Z,17.37
2019-06-07T06:50:09.032Z,15.50
2019-06-07T06:52:39.940Z,11.93
2019-06-07T06:55:10.233Z,13.10
2019-06-07T06:57:41.404Z,11.50
2019-06-07T07:00:13.084Z,12.60
2019-06-07T07:03:32.441Z,11.90
2019-06-07T07:05:13.581Z,12.07
2019-06-07T07:07:42.975Z,10.33
2019-06-07T07:10:13.854Z,10.03
2019-06-07T07:12:43.041Z,9.10
2019-06-07T07:15:17.772Z,8.77
2019-06-07T07:17:53.691Z,8.83
2019-06-07T07:20:16.443Z,7.73
2019-06-07T07:22:46.491Z,9.07
2019-06-07T07:25:15.076Z,7.43
2019-06-07T07:27:44.638Z,8.20
2019-06-07T07:30:35.957Z,6.50
2019-06-07T07:32:46.452Z,6.33
2019-06-07T07:35:14.401Z,5.80
2019-06-07T07:37:45.412Z,5.60
2019-06-07T07:40:55.543Z,5.60
2019-06-07T07:42:43.305Z,5.73
2019-06-07T07:45:13.260Z,4.77
2019-06-07T07:47:58.358Z,4.50
2019-06-07T07:50:11.977Z,4.83
2019-06-07T07:52:40.437Z,4.40
2019-06-07T07:55:09.157Z,4.33
2019-06-07T07:57:37.865Z,4.07
2019-06-07T08:00:48.591Z,3.10
2019-06-07T08:02:37.714Z,2.80
2019-06-07T08:05:21.743Z,4.00
2019-06-07T08:07:37.984Z,3.10
2019-06-07T08:10:08.532Z,3.87
2019-06-07T08:12:55.636Z,4.03
2019-06-07T08:15:07.594Z,3.83
2019-06-07T08:17:36.330Z,4.10
2019-06-07T08:20:11.479Z,4.10
2019-06-07T08:22:42.289Z,4.27
2019-06-07T08:25:16.229Z,3.90
2019-06-07T08:27:49.515Z,3.50
2019-06-07T08:33:23.883Z,3.00
2019-06-07T08:36:03.595Z,4.00
2019-06-07T08:38:27.455Z,3.73
2019-06-07T08:40:43.286Z,3.70
2019-06-07T08:43:20.550Z,3.33
2019-06-07T08:45:51.326Z,3.10
2019-06-07T08:48:28.081Z,3.63
2019-06-07T08:51:00.722Z,3.27
2019-06-07T08:53:30.792Z,3.27
2019-06-07T08:56:09.134Z,3.20
2019-06-07T08:58:38.501Z,3.27
2019-06-07T09:01:13.116Z,2.63
2019-06-07T09:03:45.958Z,3.07
2019-06-07T09:06:59.531Z,2.73
2019-06-07T09:08:53.821Z,3.13
2019-06-07T09:11:27.559Z,3.20
2019-06-07T09:14:02.295Z,3.23
2019-06-07T09:16:26.139Z,2.70
2019-06-07T09:18:59.067Z,2.80
2019-06-07T09:21:29.757Z,2.83
2019-06-07T09:24:10.351Z,3.47
2019-06-07T09:26:38.001Z,3.00
2019-06-07T09:29:09.464Z,2.80
2019-06-07T09:31:51.921Z,3.70
2019-06-07T09:34:13.702Z,3.07
2019-06-07T09:36:37.135Z,2.90
2019-06-07T09:39:12.347Z,3.20
2019-06-07T09:41:47.802Z,2.73
2019-06-07T09:44:21.281Z,3.33
2019-06-07T09:46:39.429Z,2.03
2019-06-07T09:49:22.907Z,2.67
2019-06-07T09:51:38.086Z,3.10
2019-06-07T09:54:08.751Z,3.10
2019-06-07T09:56:36.765Z,2.83
2019-06-07T09:59:07.451Z,2.90
2019-06-07T10:01:35.690Z,2.60
2019-06-07T10:04:09.077Z,2.77
2019-06-07T10:06:34.402Z,3.00
2019-06-07T10:11:33.038Z,3.77
2019-06-07T10:14:02.453Z,3.23
2019-06-07T10:16:45.812Z,3.50
2019-06-07T10:19:01.569Z,3.27
2019-06-07T10:21:30.666Z,2.77
2019-06-07T10:23:59.293Z,2.83
2019-06-07T10:26:27.873Z,2.90
2019-06-07T10:28:57.256Z,2.43
2019-06-07T10:31:25.721Z,2.90
2019-06-07T10:33:54.145Z,2.63
2019-06-07T10:36:22.664Z,2.30
2019-06-07T10:38:51.261Z,2.17
2019-06-07T10:41:19.754Z,3.10
2019-06-07T10:43:48.212Z,2.70
2019-06-07T10:46:16.696Z,2.23
2019-06-07T10:48:45.137Z,2.97
2019-06-07T10:51:14.848Z,2.90
2019-06-07T10:53:43.533Z,2.53
2019-06-07T10:56:13.343Z,2.23
2019-06-07T10:58:42.048Z,1.90
2019-06-07T11:01:12.836Z,2.23
2019-06-07T11:03:40.652Z,2.20
2019-06-07T11:06:10.094Z,2.13
2019-06-07T11:08:38.648Z,2.03
2019-06-07T11:11:07.965Z,3.30
2019-06-07T11:13:36.413Z,2.53
2019-06-07T11:16:06.743Z,2.40
2019-06-07T11:18:35.569Z,2.20
2019-06-07T11:21:05.958Z,2.37
2019-06-07T11:23:34.637Z,2.00
2019-06-07T11:26:03.073Z,2.23
2019-06-07T11:28:31.649Z,2.10
2019-06-07T11:31:00.155Z,2.43
2019-06-07T11:33:28.575Z,2.00
2019-06-07T11:35:57.017Z,2.47
2019-06-07T11:38:25.422Z,1.83
2019-06-07T11:40:53.858Z,2.30
2019-06-07T11:43:22.282Z,2.20
2019-06-07T11:45:50.693Z,2.70
2019-06-07T11:48:19.147Z,2.57
2019-06-07T11:50:47.613Z,2.10
2019-06-07T11:53:16.077Z,2.10
2019-06-07T11:55:44.577Z,1.80
2019-06-07T11:58:18.438Z,2.13
2019-06-07T12:00:43.646Z,2.27
2019-06-07T12:03:13.709Z,2.20
2019-06-07T12:05:42.409Z,1.73
2019-06-07T12:08:11.914Z,2.90
2019-06-07T12:10:42.772Z,1.90
2019-06-07T12:13:10.590Z,2.10
2019-06-07T12:15:39.036Z,2.10
2019-06-07T12:18:07.489Z,2.50
2019-06-07T12:20:35.943Z,2.00
2019-06-07T12:23:04.365Z,2.37
2019-06-07T12:25:32.845Z,2.30
2019-06-07T12:28:01.362Z,2.20
2019-06-07T12:30:29.773Z,1.97
2019-06-07T12:32:58.205Z,2.30
2019-06-07T12:35:26.614Z,2.33
2019-06-07T12:37:55.076Z,2.53
2019-06-07T12:40:30.567Z,1.80
2019-06-07T12:42:53.719Z,2.03
2019-06-07T12:45:43.823Z,2.50
2019-06-07T12:47:52.531Z,1.83
2019-06-07T12:50:21.712Z,2.03
2019-06-07T12:52:50.297Z,2.40
2019-06-07T12:55:20.417Z,2.30
2019-06-07T12:57:48.932Z,2.10
2019-06-07T13:00:18.236Z,2.33
2019-06-07T13:02:46.869Z,2.10
2019-06-07T13:05:15.714Z,2.40
2019-06-07T13:07:44.168Z,2.13
2019-06-07T13:10:12.963Z,2.20
2019-06-07T13:12:44.033Z,2.13
2019-06-07T13:15:15.775Z,3.00
2019-06-07T13:17:42.264Z,2.57
2019-06-07T13:20:11.446Z,3.00
2019-06-07T13:22:39.852Z,2.10
2019-06-07T13:25:09.240Z,2.70
2019-06-07T13:27:37.712Z,2.67
2019-06-07T13:30:10.188Z,2.50
2019-06-07T13:32:38.587Z,1.60
2019-06-07T13:35:07.882Z,2.53
2019-06-07T13:37:36.478Z,2.23
2019-06-07T13:40:06.340Z,2.83
2019-06-07T13:42:36.002Z,2.60
2019-06-07T13:45:06.539Z,2.53
2019-06-07T13:47:35.117Z,2.10
2019-06-07T13:50:08.358Z,1.80
2019-06-07T13:52:37.642Z,2.33
2019-06-07T13:55:06.945Z,2.43
2019-06-07T13:57:35.523Z,1.97
2019-06-07T14:00:10.883Z,2.03
2019-06-07T14:02:40.255Z,2.73
2019-06-07T14:05:09.271Z,2.07
2019-06-07T14:07:37.710Z,2.20
2019-06-07T14:10:11.539Z,2.17
2019-06-07T14:12:41.432Z,2.43
2019-06-07T14:15:10.424Z,1.70
2019-06-07T14:17:38.845Z,2.60
2019-06-07T14:20:09.323Z,2.40
2019-06-07T14:22:38.340Z,2.10
2019-06-07T14:25:08.994Z,1.95
2019-06-07T14:27:37.408Z,1.90
2019-06-07T14:30:08.190Z,2.03
2019-06-07T14:32:36.588Z,1.67
2019-06-07T14:35:10.178Z,2.13
2019-06-07T14:37:38.684Z,1.77
2019-06-07T14:40:08.349Z,2.07
2019-06-07T14:42:36.827Z,2.03
2019-06-07T14:45:09.615Z,1.93
2019-06-07T14:47:42.423Z,2.17
2019-06-07T14:50:15.320Z,2.60
2019-06-07T14:52:46.118Z,1.80
2019-06-07T14:55:14.169Z,1.90
2019-06-07T14:57:44.082Z,2.47
2019-06-07T15:00:16.018Z,2.30
2019-06-07T15:02:45.838Z,2.97
2019-06-07T15:05:14.816Z,2.73
2019-06-07T15:07:44.555Z,2.80
2019-06-07T15:10:17.790Z,2.87
2019-06-07T15:12:50.860Z,2.57
2019-06-07T15:18:07.515Z,3.07
2019-06-07T15:20:36.439Z,3.30
2019-06-07T15:23:05.150Z,3.00
2019-06-07T15:25:33.632Z,2.70
2019-06-07T15:28:02.123Z,3.27
2019-06-07T15:30:31.608Z,12.67
2019-06-07T15:33:00.237Z,4.00
2019-06-07T15:35:30.126Z,7.53
2019-06-07T15:37:58.664Z,5.20
2019-06-07T15:40:27.179Z,4.43
2019-06-07T15:42:55.731Z,6.03
2019-06-07T15:45:24.808Z,5.33
2019-06-07T15:47:53.347Z,5.90
2019-06-07T15:50:21.955Z,5.43
2019-06-07T15:52:50.462Z,4.90
2019-06-07T15:55:19.927Z,4.40
2019-06-07T15:57:48.346Z,4.30
2019-06-07T16:00:18.183Z,3.80
2019-06-07T16:02:46.735Z,3.80
2019-06-07T16:05:16.302Z,4.27
2019-06-07T16:07:44.937Z,5.17
2019-06-07T16:10:15.535Z,3.63
2019-06-07T16:12:59.113Z,3.10
2019-06-07T16:15:14.601Z,3.67
2019-06-07T16:17:45.779Z,3.03
2019-06-07T16:20:14.604Z,2.53
2019-06-07T16:22:43.980Z,2.27
2019-06-07T16:25:15.000Z,11.37
2019-06-07T16:27:44.669Z,4.07
2019-06-07T16:30:15.080Z,3.50
2019-06-07T16:32:44.133Z,1.77
2019-06-07T16:35:14.327Z,1.63
2019-06-07T16:37:45.785Z,1.93
2019-06-07T16:40:15.696Z,1.67
2019-06-07T16:42:45.151Z,2.20
2019-06-07T16:45:14.580Z,1.33
2019-06-07T16:47:45.988Z,1.50
2019-06-07T16:50:13.894Z,1.77
2019-06-07T16:52:44.023Z,1.40
2019-06-07T16:55:12.687Z,1.80
2019-06-07T16:57:41.267Z,1.20
2019-06-07T17:00:14.139Z,1.10
2019-06-07T17:02:42.616Z,1.67
2019-06-07T17:05:11.662Z,1.20
2019-06-07T17:07:40.530Z,1.70
2019-06-07T17:10:12.574Z,1.63
2019-06-07T17:12:42.667Z,1.37
2019-06-07T17:15:13.851Z,1.40
2019-06-07T17:17:43.009Z,1.50
2019-06-07T17:20:13.081Z,1.20
2019-06-07T17:22:42.060Z,1.37
2019-06-07T17:25:12.530Z,1.30
2019-06-07T17:27:42.029Z,1.57
2019-06-07T17:30:12.550Z,0.90
2019-06-07T17:32:56.283Z,1.37
2019-06-07T17:35:17.388Z,1.20
2019-06-07T17:37:47.743Z,2.07
2019-06-07T17:40:16.402Z,4.33
2019-06-07T17:42:44.887Z,1.67
2019-06-07T17:45:14.342Z,1.17
2019-06-07T17:47:45.844Z,1.20
2019-06-07T17:50:15.298Z,1.20
2019-06-07T17:52:43.876Z,1.10
2019-06-07T17:55:12.972Z,1.40
2019-06-07T17:57:42.248Z,1.87
2019-06-07T18:00:33.514Z,1.67
2019-06-07T18:02:46.762Z,1.17
2019-06-07T18:05:15.803Z,1.33
2019-06-07T18:07:47.622Z,2.00
2019-06-07T18:10:34.365Z,2.23
2019-06-07T18:13:03.044Z,1.67
2019-06-07T18:15:46.849Z,1.87
2019-06-07T18:18:16.806Z,1.70
2019-06-07T18:20:46.992Z,1.63
2019-06-07T18:23:16.100Z,1.60
2019-06-07T18:25:44.531Z,1.50
2019-06-07T18:28:13.022Z,1.70
2019-06-07T18:30:41.624Z,1.30
2019-06-07T18:33:10.241Z,2.00
2019-06-07T18:35:40.398Z,1.70
2019-06-07T18:38:10.892Z,1.40
2019-06-07T18:40:39.504Z,1.60
2019-06-07T18:43:08.088Z,1.77
2019-06-07T18:45:36.829Z,1.30
2019-06-07T18:48:06.203Z,1.50
2019-06-07T18:50:35.736Z,2.00
2019-06-07T18:53:04.455Z,1.37
2019-06-07T18:55:32.896Z,1.53
2019-06-07T18:58:04.173Z,1.57
2019-06-07T19:00:33.369Z,1.33
2019-06-07T19:03:01.873Z,1.50
2019-06-07T19:05:30.394Z,1.17
2019-06-07T19:07:59.891Z,1.57
2019-06-07T19:10:28.885Z,1.47
2019-06-07T19:12:57.470Z,1.47
2019-06-07T19:15:26.859Z,1.27
2019-06-07T19:17:56.128Z,1.20
2019-06-07T19:20:25.374Z,1.43
2019-06-07T19:22:54.316Z,1.40
2019-06-07T19:25:23.423Z,1.40
2019-06-07T19:27:52.726Z,1.90
2019-06-07T19:30:22.727Z,1.60
2019-06-07T19:32:51.490Z,1.40
2019-06-07T19:35:20.623Z,1.30
2019-06-07T19:37:49.133Z,1.30
2019-06-07T19:40:18.213Z,1.27
2019-06-07T19:42:46.655Z,1.73
2019-06-07T19:45:29.655Z,1.67
2019-06-07T19:47:47.269Z,1.97
2019-06-07T19:50:17.435Z,1.60
2019-06-07T19:52:45.889Z,1.70
2019-06-07T19:55:14.624Z,2.10
2019-06-07T19:57:43.176Z,1.70
2019-06-07T20:00:14.301Z,1.67
2019-06-07T20:02:42.310Z,1.60
2019-06-07T20:05:13.018Z,1.33
2019-06-07T20:07:42.530Z,1.80
2019-06-07T20:10:12.113Z,2.17
2019-06-07T20:12:40.694Z,1.60
2019-06-07T20:15:26.980Z,2.20
2019-06-07T20:17:39.872Z,1.73
2019-06-07T20:20:09.127Z,2.40
2019-06-07T20:22:37.844Z,1.47
2019-06-07T20:25:06.701Z,1.53
2019-06-07T20:27:35.111Z,1.60
2019-06-07T20:30:09.111Z,1.80
2019-06-07T20:32:37.555Z,1.60
2019-06-07T20:35:08.023Z,1.83
2019-06-07T20:37:36.819Z,1.80
2019-06-07T20:40:22.402Z,1.50
2019-06-07T20:42:40.146Z,2.43
2019-06-07T20:45:09.200Z,1.87
2019-06-07T20:47:37.655Z,1.87
2019-06-07T20:50:09.890Z,2.40
2019-06-07T20:52:39.053Z,2.20
2019-06-07T20:55:09.599Z,1.23
2019-06-07T20:57:38.507Z,1.73
2019-06-07T21:00:16.741Z,1.67
2019-06-07T21:02:40.419Z,1.50
2019-06-07T21:05:09.892Z,1.43
2019-06-07T21:07:38.709Z,1.50
2019-06-07T21:10:08.426Z,1.80
2019-06-07T21:12:37.060Z,1.80
2019-06-07T21:15:12.867Z,1.53
2019-06-07T21:17:39.784Z,1.67
2019-06-07T21:20:13.235Z,1.50
2019-06-07T21:22:39.338Z,1.67
2019-06-07T21:25:09.534Z,1.37
2019-06-07T21:27:38.351Z,1.90
2019-06-07T21:30:09.615Z,1.70
2019-06-07T21:32:38.442Z,1.40
2019-06-07T21:35:08.001Z,2.17
2019-06-07T21:37:36.681Z,1.67
2019-06-07T21:40:06.063Z,2.57
2019-06-07T21:42:36.230Z,2.37
2019-06-07T21:45:07.920Z,1.57
2019-06-07T21:47:36.813Z,1.57
2019-06-07T21:50:08.724Z,2.00
2019-06-07T21:52:37.585Z,1.90
2019-06-07T21:55:07.356Z,1.50
2019-06-07T21:57:36.729Z,1.33
2019-06-07T22:00:09.205Z,2.13
2019-06-07T22:02:37.907Z,2.63
2019-06-07T22:05:07.894Z,1.73
2019-06-07T22:07:36.324Z,2.10
2019-06-07T22:10:07.884Z,1.63
2019-06-07T22:12:36.628Z,1.63
2019-06-07T22:15:27.162Z,2.17
2019-06-07T22:17:37.294Z,1.70
2019-06-07T22:20:06.858Z,1.80
2019-06-07T22:22:36.085Z,2.10
2019-06-07T22:25:06.924Z,1.93
2019-06-07T22:27:35.437Z,1.83
2019-06-07T22:30:06.228Z,1.80
2019-06-07T22:32:34.664Z,2.17
2019-06-07T22:35:03.717Z,1.67
2019-06-07T22:37:32.151Z,2.27
2019-06-07T22:40:00.629Z,1.70
2019-06-07T22:42:29.040Z,1.70
2019-06-07T22:44:58.052Z,1.83
2019-06-07T22:47:26.982Z,1.70
2019-06-07T22:49:55.440Z,1.60
2019-06-07T22:52:23.935Z,2.00
2019-06-07T22:54:52.363Z,1.70
2019-06-07T22:57:22.816Z,1.70
2019-06-07T22:59:51.254Z,1.43
2019-06-07T23:02:19.668Z,1.90
2019-06-07T23:04:48.104Z,1.80
2019-06-07T23:07:17.103Z,1.50
2019-06-07T23:09:45.642Z,1.40
2019-06-07T23:12:15.225Z,1.80
2019-06-07T23:14:43.820Z,1.00
2019-06-07T23:17:13.745Z,1.97
2019-06-07T23:19:42.376Z,1.93
2019-06-07T23:22:11.882Z,1.73
2019-06-07T23:24:40.424Z,1.83
2019-06-07T23:27:10.926Z,1.80
2019-06-07T23:29:39.278Z,1.67
2019-06-07T23:32:07.735Z,1.60
2019-06-07T23:34:36.212Z,1.37
2019-06-07T23:37:04.716Z,1.93
2019-06-07T23:39:33.120Z,1.93
2019-06-07T23:42:01.561Z,1.60
2019-06-07T23:44:30.011Z,1.53
2019-06-07T23:47:10.680Z,1.53
2019-06-07T23:49:28.586Z,1.33
2019-06-07T23:51:56.991Z,2.33
2019-06-07T23:54:25.423Z,1.80
2019-06-07T23:56:53.860Z,2.50
2019-06-07T23:59:22.494Z,1.50
